createdAt,value
2017-09-30T00:00:56.807Z,19.55
2017-09-30T00:01:56.809Z,19.60
2017-09-30T00:02:56.808Z,19.49
2017-09-30T00:03:56.821Z,19.53
2017-09-30T00:04:56.814Z,19.49
2017-09-30T00:05:56.807Z,19.50
2017-09-30T00:06:56.808Z,19.52
2017-09-30T00:07:56.809Z,19.53
2017-09-30T00:08:56.810Z,19.55
2017-09-30T00:09:56.810Z,19.49
2017-09-30T00:10:56.811Z,19.49
2017-09-30T00:11:56.812Z,19.43
2017-09-30T00:12:56.812Z,19.39
2017-09-30T00:13:56.816Z,19.43
2017-09-30T00:14:56.818Z,19.39
2017-09-30T00:15:56.821Z,19.43
2017-09-30T00:16:56.819Z,19.45
2017-09-30T00:17:56.820Z,19.47
2017-09-30T00:18:56.820Z,19.45
2017-09-30T00:19:56.822Z,19.39
2017-09-30T00:20:56.821Z,19.46
2017-09-30T00:21:56.817Z,19.45
2017-09-30T00:22:56.819Z,19.45
2017-09-30T00:23:56.820Z,19.42
2017-09-30T00:24:56.819Z,19.39
2017-09-30T00:25:56.822Z,19.49
2017-09-30T00:26:56.821Z,19.49
2017-09-30T00:27:56.822Z,19.42
2017-09-30T00:28:56.820Z,19.38
2017-09-30T00:29:56.826Z,19.49
2017-09-30T00:30:56.827Z,19.39
2017-09-30T00:31:56.828Z,19.35
2017-09-30T00:32:56.827Z,19.45
2017-09-30T00:33:56.829Z,19.47
2017-09-30T00:34:56.829Z,19.38
2017-09-30T00:35:56.829Z,19.40
2017-09-30T00:36:56.832Z,19.40
2017-09-30T00:37:56.829Z,19.47
2017-09-30T00:38:56.828Z,19.38
2017-09-30T00:39:56.827Z,19.42
2017-09-30T00:40:56.828Z,19.45
2017-09-30T00:41:56.829Z,19.46
2017-09-30T00:42:56.830Z,19.43
2017-09-30T00:43:56.831Z,19.49
2017-09-30T00:44:56.830Z,19.46
2017-09-30T00:45:56.835Z,19.43
2017-09-30T00:46:56.837Z,19.40
2017-09-30T00:47:56.837Z,19.42
2017-09-30T00:48:56.837Z,19.42
2017-09-30T00:49:56.836Z,19.40
2017-09-30T00:50:56.838Z,19.39
2017-09-30T00:51:56.839Z,19.39
2017-09-30T00:52:56.838Z,19.45
2017-09-30T00:53:56.836Z,19.43
2017-09-30T00:54:56.837Z,19.42
2017-09-30T00:55:56.838Z,19.53
2017-09-30T00:56:56.837Z,19.46
2017-09-30T00:57:56.838Z,19.62
2017-09-30T00:58:56.839Z,19.62
2017-09-30T00:59:56.841Z,19.61
2017-09-30T01:00:56.840Z,19.65
2017-09-30T01:01:56.847Z,19.71
2017-09-30T01:02:56.846Z,19.68
2017-09-30T01:03:56.845Z,19.60
2017-09-30T01:04:56.847Z,19.57
2017-09-30T01:05:56.848Z,19.60
2017-09-30T01:06:56.849Z,19.58
2017-09-30T01:07:56.848Z,19.57
2017-09-30T01:08:56.850Z,19.55
2017-09-30T01:09:56.846Z,19.60
2017-09-30T01:10:56.846Z,19.58
2017-09-30T01:11:56.846Z,19.52
2017-09-30T01:12:56.848Z,19.53
2017-09-30T01:13:56.847Z,19.46
2017-09-30T01:14:56.848Z,19.47
2017-09-30T01:15:56.848Z,19.42
2017-09-30T01:16:56.848Z,19.42
2017-09-30T01:17:56.853Z,19.47
2017-09-30T01:18:56.853Z,19.45
2017-09-30T01:19:56.855Z,19.43
2017-09-30T01:20:56.854Z,19.35
2017-09-30T01:21:56.859Z,19.40
2017-09-30T01:22:56.855Z,19.42
2017-09-30T01:23:56.856Z,19.35
2017-09-30T01:24:56.856Z,19.34
2017-09-30T01:25:56.852Z,19.20
2017-09-30T01:26:56.853Z,19.31
2017-09-30T01:27:56.852Z,19.28
2017-09-30T01:28:56.853Z,19.28
2017-09-30T01:29:56.853Z,19.28
2017-09-30T01:30:56.853Z,19.21
2017-09-30T01:31:56.856Z,19.25
2017-09-30T01:32:56.853Z,19.27
2017-09-30T01:33:56.859Z,19.21
2017-09-30T01:34:56.859Z,19.27
2017-09-30T01:35:56.861Z,19.16
2017-09-30T01:36:56.863Z,19.15
2017-09-30T01:37:56.861Z,19.13
2017-09-30T01:38:56.861Z,19.12
2017-09-30T01:39:56.862Z,19.10
2017-09-30T01:40:56.862Z,19.01
2017-09-30T01:41:56.857Z,19.05
2017-09-30T01:42:56.860Z,18.94
2017-09-30T01:43:56.859Z,18.94
2017-09-30T01:44:56.859Z,19.02
2017-09-30T01:45:56.864Z,19.02
2017-09-30T01:46:56.864Z,19.01
2017-09-30T01:47:56.866Z,18.89
2017-09-30T01:48:56.863Z,18.86
2017-09-30T01:49:56.861Z,18.82
2017-09-30T01:50:56.862Z,18.87
2017-09-30T01:51:56.861Z,18.84
2017-09-30T01:52:56.864Z,18.74
2017-09-30T01:53:56.861Z,18.72
2017-09-30T01:54:56.861Z,18.60
2017-09-30T01:55:56.862Z,18.47
2017-09-30T01:56:56.861Z,18.49
2017-09-30T01:57:56.866Z,18.36
2017-09-30T01:58:56.866Z,18.46
2017-09-30T01:59:56.866Z,18.34
2017-09-30T02:00:56.866Z,18.36
2017-09-30T02:01:56.866Z,18.29
2017-09-30T02:02:56.866Z,18.31
2017-09-30T02:03:56.867Z,18.23
2017-09-30T02:04:56.864Z,18.20
2017-09-30T02:05:56.862Z,18.26
2017-09-30T02:06:56.862Z,18.10
2017-09-30T02:07:56.862Z,18.16
2017-09-30T02:08:56.860Z,18.05
2017-09-30T02:09:56.861Z,18.05
2017-09-30T02:10:56.861Z,18.04
2017-09-30T02:11:56.860Z,17.99
2017-09-30T02:12:56.861Z,17.98
2017-09-30T02:13:56.864Z,18.10
2017-09-30T02:14:56.865Z,18.14
2017-09-30T02:15:56.866Z,18.07
2017-09-30T02:16:56.862Z,18.13
2017-09-30T02:17:56.863Z,18.13
2017-09-30T02:18:56.864Z,18.13
2017-09-30T02:19:56.862Z,18.09
2017-09-30T02:20:56.862Z,18.10
2017-09-30T02:21:56.858Z,18.02
2017-09-30T02:22:56.858Z,17.99
2017-09-30T02:23:56.856Z,17.98
2017-09-30T02:24:56.857Z,17.87
2017-09-30T02:25:56.856Z,17.83
2017-09-30T02:26:56.855Z,17.81
2017-09-30T02:27:56.855Z,17.81
2017-09-30T02:28:56.854Z,17.76
2017-09-30T02:29:56.857Z,17.84
2017-09-30T02:30:56.867Z,17.79
2017-09-30T02:31:56.856Z,17.77
2017-09-30T02:32:56.854Z,17.79
2017-09-30T02:33:56.853Z,17.74
2017-09-30T02:34:56.856Z,17.74
2017-09-30T02:35:56.853Z,17.79
2017-09-30T02:36:56.850Z,17.73
2017-09-30T02:37:56.845Z,17.68
2017-09-30T02:38:56.845Z,17.76
2017-09-30T02:39:56.846Z,17.80
2017-09-30T02:40:56.844Z,17.80
2017-09-30T02:41:56.842Z,17.84
2017-09-30T02:42:56.842Z,17.79
2017-09-30T02:43:56.842Z,17.76
2017-09-30T02:44:56.845Z,17.73
2017-09-30T02:45:56.843Z,17.71
2017-09-30T02:46:56.843Z,17.74
2017-09-30T02:47:56.841Z,17.74
2017-09-30T02:48:56.840Z,17.73
2017-09-30T02:49:56.842Z,17.86
2017-09-30T02:50:56.834Z,17.79
2017-09-30T02:51:56.834Z,17.76
2017-09-30T02:52:56.833Z,17.80
2017-09-30T02:53:56.838Z,17.80
2017-09-30T02:54:56.836Z,17.81
2017-09-30T02:55:56.834Z,17.76
2017-09-30T02:56:56.832Z,17.89
2017-09-30T02:57:56.831Z,17.79
2017-09-30T02:58:56.836Z,17.74
2017-09-30T02:59:56.831Z,17.76
2017-09-30T03:00:56.836Z,17.73
2017-09-30T03:01:56.824Z,17.76
2017-09-30T03:02:56.824Z,17.70
2017-09-30T03:03:56.822Z,17.77
2017-09-30T03:04:56.821Z,17.84
2017-09-30T03:05:56.821Z,17.76
2017-09-30T03:06:56.818Z,17.74
2017-09-30T03:07:56.818Z,17.76
2017-09-30T03:08:56.816Z,17.74
2017-09-30T03:09:56.820Z,17.71
2017-09-30T03:10:56.819Z,17.80
2017-09-30T03:11:56.818Z,17.71
2017-09-30T03:12:56.816Z,17.74
2017-09-30T03:13:56.819Z,17.80
2017-09-30T03:14:56.815Z,17.83
2017-09-30T03:15:56.815Z,17.77
2017-09-30T03:16:56.813Z,17.71
2017-09-30T03:17:56.812Z,17.83
2017-09-30T03:18:56.807Z,17.80
2017-09-30T03:19:56.806Z,17.87
2017-09-30T03:20:56.805Z,17.74
2017-09-30T03:21:56.804Z,17.73
2017-09-30T03:22:56.802Z,17.74
2017-09-30T03:23:56.802Z,17.79
2017-09-30T03:24:56.800Z,17.74
2017-09-30T03:25:56.806Z,17.79
2017-09-30T03:26:56.804Z,17.71
2017-09-30T03:27:56.800Z,17.68
2017-09-30T03:28:56.800Z,17.73
2017-09-30T03:29:56.799Z,17.60
2017-09-30T03:30:56.797Z,17.58
2017-09-30T03:31:56.796Z,17.71
2017-09-30T03:32:56.795Z,17.66
2017-09-30T03:33:56.793Z,17.62
2017-09-30T03:34:56.792Z,17.70
2017-09-30T03:35:56.800Z,17.65
2017-09-30T03:36:56.786Z,17.62
2017-09-30T03:37:56.785Z,17.55
2017-09-30T03:38:56.785Z,17.63
2017-09-30T03:39:56.783Z,17.60
2017-09-30T03:40:56.781Z,17.62
2017-09-30T03:41:56.784Z,17.58
2017-09-30T03:42:56.783Z,17.57
2017-09-30T03:43:56.783Z,17.60
2017-09-30T03:44:56.779Z,17.57
2017-09-30T03:45:56.779Z,17.62
2017-09-30T03:46:56.794Z,17.55
2017-09-30T03:47:56.777Z,17.62
2017-09-30T03:48:56.775Z,17.63
2017-09-30T03:49:56.771Z,17.55
2017-09-30T03:50:56.768Z,17.54
2017-09-30T03:51:56.768Z,17.63
2017-09-30T03:52:56.766Z,17.54
2017-09-30T03:53:56.769Z,17.62
2017-09-30T03:54:56.771Z,17.54
2017-09-30T03:55:56.766Z,17.58
2017-09-30T03:56:56.765Z,17.60
2017-09-30T03:57:56.760Z,17.65
2017-09-30T03:58:56.758Z,17.58
2017-09-30T03:59:56.757Z,17.63
2017-09-30T04:00:56.756Z,17.60
2017-09-30T04:01:56.755Z,17.58
2017-09-30T04:02:56.753Z,17.55
2017-09-30T04:03:56.752Z,17.57
2017-09-30T04:04:56.750Z,17.62
2017-09-30T04:05:56.753Z,17.66
2017-09-30T04:06:56.752Z,17.60
2017-09-30T04:07:56.752Z,17.57
2017-09-30T04:08:56.748Z,17.55
2017-09-30T04:09:56.749Z,17.58
2017-09-30T04:10:56.746Z,17.55
2017-09-30T04:11:56.746Z,17.58
2017-09-30T04:12:56.744Z,17.51
2017-09-30T04:13:56.739Z,17.51
2017-09-30T04:14:56.738Z,17.51
2017-09-30T04:15:56.737Z,17.54
2017-09-30T04:16:56.735Z,17.54
2017-09-30T04:17:56.733Z,17.55
2017-09-30T04:18:56.732Z,17.54
2017-09-30T04:19:56.733Z,17.47
2017-09-30T04:20:56.732Z,17.49
2017-09-30T04:21:56.732Z,17.43
2017-09-30T04:22:56.732Z,17.46
2017-09-30T04:23:56.730Z,17.46
2017-09-30T04:24:56.730Z,17.42
2017-09-30T04:25:56.730Z,17.45
2017-09-30T04:26:56.726Z,17.43
2017-09-30T04:27:56.727Z,17.42
2017-09-30T04:28:56.723Z,17.46
2017-09-30T04:29:56.720Z,17.42
2017-09-30T04:30:56.719Z,17.38
2017-09-30T04:31:56.718Z,17.39
2017-09-30T04:32:56.717Z,17.40
2017-09-30T04:33:56.714Z,17.42
2017-09-30T04:34:56.715Z,17.33
2017-09-30T04:35:56.714Z,17.40
2017-09-30T04:36:56.712Z,17.42
2017-09-30T04:37:56.714Z,17.36
2017-09-30T04:38:56.715Z,17.35
2017-09-30T04:39:56.713Z,17.35
2017-09-30T04:40:56.711Z,17.39
2017-09-30T04:41:56.712Z,17.33
2017-09-30T04:42:56.714Z,17.32
2017-09-30T04:43:56.708Z,17.30
2017-09-30T04:44:56.708Z,17.33
2017-09-30T04:45:56.703Z,17.30
2017-09-30T04:46:56.702Z,17.32
2017-09-30T04:47:56.702Z,17.36
2017-09-30T04:48:56.698Z,17.27
2017-09-30T04:49:56.699Z,17.28
2017-09-30T04:50:56.697Z,17.36
2017-09-30T04:51:56.696Z,17.36
2017-09-30T04:52:56.695Z,17.35
2017-09-30T04:53:56.699Z,17.28
2017-09-30T04:54:56.697Z,17.32
2017-09-30T04:55:56.697Z,17.38
2017-09-30T04:56:56.694Z,17.39
2017-09-30T04:57:56.690Z,17.30
2017-09-30T04:58:56.691Z,17.42
2017-09-30T04:59:56.688Z,17.40
2017-09-30T05:00:56.686Z,17.24
2017-09-30T05:01:56.691Z,17.21
2017-09-30T05:02:56.688Z,17.18
2017-09-30T05:03:56.688Z,17.24
2017-09-30T05:04:56.687Z,17.12
2017-09-30T05:05:56.685Z,17.09
2017-09-30T05:06:56.684Z,16.98
2017-09-30T05:07:56.684Z,17.06
2017-09-30T05:08:56.683Z,16.99
2017-09-30T05:09:56.677Z,16.99
2017-09-30T05:10:56.676Z,17.05
2017-09-30T05:11:56.677Z,16.96
2017-09-30T05:12:56.673Z,16.95
2017-09-30T05:13:56.674Z,16.85
2017-09-30T05:14:56.672Z,16.92
2017-09-30T05:15:56.671Z,16.85
2017-09-30T05:16:56.668Z,16.84
2017-09-30T05:17:56.672Z,16.78
2017-09-30T05:18:56.672Z,16.80
2017-09-30T05:19:56.671Z,16.85
2017-09-30T05:20:56.669Z,16.78
2017-09-30T05:21:56.667Z,16.81
2017-09-30T05:22:56.666Z,16.84
2017-09-30T05:23:56.667Z,16.80
2017-09-30T05:24:56.664Z,16.81
2017-09-30T05:25:56.658Z,16.85
2017-09-30T05:26:56.658Z,16.75
2017-09-30T05:27:56.657Z,16.88
2017-09-30T05:28:56.655Z,16.88
2017-09-30T05:29:56.653Z,16.77
2017-09-30T05:30:56.651Z,16.81
2017-09-30T05:31:56.653Z,16.84
2017-09-30T05:32:56.649Z,16.81
2017-09-30T05:33:56.652Z,16.80
2017-09-30T05:34:56.651Z,16.81
2017-09-30T05:35:56.650Z,16.98
2017-09-30T05:36:56.648Z,16.91
2017-09-30T05:37:56.648Z,16.88
2017-09-30T05:38:56.647Z,16.88
2017-09-30T05:39:56.647Z,16.91
2017-09-30T05:40:56.644Z,16.90
2017-09-30T05:41:56.639Z,16.91
2017-09-30T05:42:56.638Z,16.88
2017-09-30T05:43:56.638Z,16.96
2017-09-30T05:44:56.635Z,16.87
2017-09-30T05:45:56.633Z,17.00
2017-09-30T05:46:56.633Z,17.02
2017-09-30T05:47:56.632Z,17.09
2017-09-30T05:48:56.629Z,17.10
2017-09-30T05:49:56.633Z,17.18
2017-09-30T05:50:56.632Z,17.21
2017-09-30T05:51:56.632Z,17.22
2017-09-30T05:52:56.630Z,17.25
2017-09-30T05:53:56.629Z,17.30
2017-09-30T05:54:56.630Z,17.30
2017-09-30T05:55:56.626Z,17.32
2017-09-30T05:56:56.626Z,17.33
2017-09-30T05:57:56.621Z,17.42
2017-09-30T05:58:56.619Z,17.46
2017-09-30T05:59:56.618Z,17.42
2017-09-30T06:00:56.617Z,17.42
2017-09-30T06:01:56.620Z,17.43
2017-09-30T06:02:56.619Z,17.42
2017-09-30T06:03:56.619Z,17.45
2017-09-30T06:04:56.616Z,17.49
2017-09-30T06:05:56.611Z,17.55
2017-09-30T06:06:56.611Z,17.47
2017-09-30T06:07:56.610Z,17.49
2017-09-30T06:08:56.608Z,17.60
2017-09-30T06:09:56.606Z,17.58
2017-09-30T06:10:56.611Z,17.55
2017-09-30T06:11:56.605Z,17.60
2017-09-30T06:12:56.604Z,17.68
2017-09-30T06:13:56.608Z,17.55
2017-09-30T06:14:56.606Z,17.62
2017-09-30T06:15:56.607Z,17.65
2017-09-30T06:16:56.605Z,17.57
2017-09-30T06:17:56.621Z,17.74
2017-09-30T06:18:56.604Z,17.83
2017-09-30T06:19:56.604Z,17.79
2017-09-30T06:20:56.617Z,17.70
2017-09-30T06:21:56.597Z,17.74
2017-09-30T06:22:56.596Z,17.81
2017-09-30T06:23:56.594Z,17.76
2017-09-30T06:24:56.595Z,17.76
2017-09-30T06:25:56.594Z,17.80
2017-09-30T06:26:56.594Z,17.76
2017-09-30T06:27:56.593Z,17.80
2017-09-30T06:28:56.591Z,17.73
2017-09-30T06:29:56.594Z,17.83
2017-09-30T06:30:56.593Z,17.80
2017-09-30T06:31:56.594Z,17.71
2017-09-30T06:32:56.593Z,17.76
2017-09-30T06:33:56.592Z,17.71
2017-09-30T06:34:56.592Z,17.74
2017-09-30T06:35:56.591Z,17.63
2017-09-30T06:36:56.589Z,17.55
2017-09-30T06:37:56.585Z,17.58
2017-09-30T06:38:56.584Z,17.62
2017-09-30T06:39:56.584Z,17.58
2017-09-30T06:40:56.582Z,17.53
2017-09-30T06:41:56.583Z,17.60
2017-09-30T06:42:56.582Z,17.42
2017-09-30T06:43:56.581Z,17.57
2017-09-30T06:44:56.579Z,17.54
2017-09-30T06:45:56.584Z,17.51
2017-09-30T06:46:56.584Z,17.57
2017-09-30T06:47:56.583Z,17.58
2017-09-30T06:48:56.581Z,17.60
2017-09-30T06:49:56.602Z,17.57
2017-09-30T06:50:56.579Z,17.60
2017-09-30T06:51:56.579Z,17.58
2017-09-30T06:52:56.580Z,17.51
2017-09-30T06:53:56.572Z,17.55
2017-09-30T06:54:56.573Z,17.53
2017-09-30T06:55:56.572Z,17.54
2017-09-30T06:56:56.570Z,17.54
2017-09-30T06:57:56.569Z,17.55
2017-09-30T06:58:56.570Z,17.55
2017-09-30T06:59:56.569Z,17.62
2017-09-30T07:00:56.569Z,17.66
2017-09-30T07:01:56.571Z,17.58
2017-09-30T07:02:56.572Z,17.73
2017-09-30T07:03:56.571Z,17.66
2017-09-30T07:04:56.569Z,17.74
2017-09-30T07:05:56.565Z,17.71
2017-09-30T07:06:56.564Z,17.73
2017-09-30T07:07:56.564Z,17.77
2017-09-30T07:08:56.562Z,17.77
2017-09-30T07:09:56.566Z,17.77
2017-09-30T07:10:56.565Z,17.84
2017-09-30T07:11:56.564Z,17.87
2017-09-30T07:12:56.563Z,17.98
2017-09-30T07:13:56.564Z,17.91
2017-09-30T07:14:56.563Z,17.98
2017-09-30T07:15:56.564Z,17.98
2017-09-30T07:16:56.560Z,18.01
2017-09-30T07:17:56.558Z,17.99
2017-09-30T07:18:56.556Z,18.09
2017-09-30T07:19:56.556Z,18.04
2017-09-30T07:20:56.555Z,18.04
2017-09-30T07:21:56.555Z,17.95
2017-09-30T07:22:56.554Z,17.94
2017-09-30T07:23:56.555Z,17.94
2017-09-30T07:24:56.556Z,17.99
2017-09-30T07:25:56.558Z,17.98
2017-09-30T07:26:56.557Z,18.02
2017-09-30T07:27:56.557Z,17.91
2017-09-30T07:28:56.556Z,17.94
2017-09-30T07:29:56.611Z,17.95
2017-09-30T07:30:56.555Z,17.95
2017-09-30T07:31:56.563Z,17.84
2017-09-30T07:32:56.554Z,17.95
2017-09-30T07:33:56.550Z,17.95
2017-09-30T07:34:56.550Z,17.96
2017-09-30T07:35:56.550Z,17.96
2017-09-30T07:36:56.547Z,18.02
2017-09-30T07:37:56.548Z,17.99
2017-09-30T07:38:56.550Z,18.04
2017-09-30T07:39:56.548Z,17.98
2017-09-30T07:40:56.546Z,18.09
2017-09-30T07:41:56.551Z,17.94
2017-09-30T07:42:56.552Z,17.95
2017-09-30T07:43:56.552Z,17.92
2017-09-30T07:44:56.551Z,17.86
2017-09-30T07:45:56.549Z,17.77
2017-09-30T07:46:56.549Z,17.73
2017-09-30T07:47:56.547Z,17.74
2017-09-30T07:48:56.546Z,17.74
2017-09-30T07:49:56.543Z,17.70
2017-09-30T07:50:56.543Z,17.84
2017-09-30T07:51:56.542Z,17.81
2017-09-30T07:52:56.540Z,17.81
2017-09-30T07:53:56.539Z,17.80
2017-09-30T07:54:56.540Z,17.66
2017-09-30T07:55:56.541Z,17.84
2017-09-30T07:56:56.539Z,17.73
2017-09-30T07:57:56.542Z,17.79
2017-09-30T07:58:56.542Z,17.91
2017-09-30T07:59:56.542Z,17.84
2017-09-30T08:00:56.542Z,17.91
2017-09-30T08:01:56.540Z,17.95
2017-09-30T08:02:56.540Z,18.01
2017-09-30T08:03:56.540Z,18.09
2017-09-30T08:04:56.537Z,18.14
2017-09-30T08:05:56.533Z,18.16
2017-09-30T08:06:56.532Z,18.25
2017-09-30T08:07:56.534Z,18.14
2017-09-30T08:08:56.532Z,18.19
2017-09-30T08:09:56.537Z,18.20
2017-09-30T08:10:56.535Z,18.20
2017-09-30T08:11:56.547Z,18.20
2017-09-30T08:12:56.535Z,18.20
2017-09-30T08:13:56.530Z,18.26
2017-09-30T08:14:56.530Z,18.31
2017-09-30T08:15:56.536Z,18.31
2017-09-30T08:16:56.528Z,18.34
2017-09-30T08:17:56.528Z,18.19
2017-09-30T08:18:56.527Z,18.17
2017-09-30T08:19:56.527Z,18.07
2017-09-30T08:20:56.527Z,18.02
2017-09-30T08:21:56.530Z,17.94
2017-09-30T08:22:56.530Z,17.98
2017-09-30T08:23:56.530Z,17.99
2017-09-30T08:24:56.529Z,18.02
2017-09-30T08:25:56.527Z,17.99
2017-09-30T08:26:56.529Z,17.98
2017-09-30T08:27:56.541Z,17.94
2017-09-30T08:28:56.527Z,17.96
2017-09-30T08:29:56.524Z,17.94
2017-09-30T08:30:56.523Z,17.99
2017-09-30T08:31:56.523Z,18.04
2017-09-30T08:32:56.523Z,18.04
2017-09-30T08:33:56.522Z,18.09
2017-09-30T08:34:56.523Z,18.20
2017-09-30T08:35:56.521Z,18.14
2017-09-30T08:36:56.521Z,18.19
2017-09-30T08:37:56.526Z,18.05
2017-09-30T08:38:56.524Z,18.01
2017-09-30T08:39:56.523Z,17.98
2017-09-30T08:40:56.524Z,18.01
2017-09-30T08:41:56.523Z,17.99
2017-09-30T08:42:56.540Z,18.01
2017-09-30T08:43:56.531Z,18.04
2017-09-30T08:44:56.522Z,18.23
2017-09-30T08:45:56.520Z,18.20
2017-09-30T08:46:56.520Z,18.34
2017-09-30T08:47:56.517Z,18.29
2017-09-30T08:48:56.516Z,18.41
2017-09-30T08:49:56.515Z,18.44
2017-09-30T08:50:56.515Z,18.46
2017-09-30T08:51:56.528Z,18.44
2017-09-30T08:52:56.514Z,18.51
2017-09-30T08:53:56.520Z,18.46
2017-09-30T08:54:56.518Z,18.42
2017-09-30T08:55:56.517Z,18.44
2017-09-30T08:56:56.516Z,18.49
2017-09-30T08:57:56.516Z,18.49
2017-09-30T08:58:56.520Z,18.46
2017-09-30T08:59:56.517Z,18.35
2017-09-30T09:00:56.517Z,18.34
2017-09-30T09:01:56.511Z,18.31
2017-09-30T09:02:56.511Z,18.17
2017-09-30T09:03:56.510Z,18.20
2017-09-30T09:04:56.518Z,18.28
2017-09-30T09:05:56.510Z,18.25
2017-09-30T09:06:56.510Z,18.19
2017-09-30T09:07:56.509Z,18.23
2017-09-30T09:08:56.507Z,18.14
2017-09-30T09:09:56.511Z,18.10
2017-09-30T09:10:56.512Z,18.19
2017-09-30T09:11:56.511Z,18.17
2017-09-30T09:12:56.510Z,18.14
2017-09-30T09:13:56.511Z,18.10
2017-09-30T09:14:56.510Z,18.07
2017-09-30T09:15:56.510Z,18.11
2017-09-30T09:16:56.509Z,18.09
2017-09-30T09:17:56.505Z,18.16
2017-09-30T09:18:56.506Z,18.13
2017-09-30T09:19:56.504Z,18.16
2017-09-30T09:20:56.502Z,18.19
2017-09-30T09:21:56.501Z,18.16
2017-09-30T09:22:56.502Z,18.09
2017-09-30T09:23:56.501Z,18.11
2017-09-30T09:24:56.500Z,18.02
2017-09-30T09:25:56.504Z,17.99
2017-09-30T09:26:56.504Z,17.89
2017-09-30T09:27:56.504Z,18.04
2017-09-30T09:28:56.502Z,18.01
2017-09-30T09:29:56.502Z,18.09
2017-09-30T09:30:56.502Z,18.02
2017-09-30T09:31:56.500Z,18.09
2017-09-30T09:32:56.499Z,18.02
2017-09-30T09:33:56.495Z,18.05
2017-09-30T09:34:56.495Z,18.01
2017-09-30T09:35:56.494Z,18.09
2017-09-30T09:36:56.492Z,18.02
2017-09-30T09:37:56.494Z,17.96
2017-09-30T09:38:56.492Z,17.96
2017-09-30T09:39:56.495Z,17.96
2017-09-30T09:40:56.490Z,17.96
2017-09-30T09:41:56.494Z,17.98
2017-09-30T09:42:56.493Z,17.84
2017-09-30T09:43:56.493Z,17.84
2017-09-30T09:44:56.490Z,17.86
2017-09-30T09:45:56.491Z,17.91
2017-09-30T09:46:56.497Z,17.92
2017-09-30T09:47:56.491Z,17.84
2017-09-30T09:48:56.490Z,17.89
2017-09-30T09:49:56.483Z,17.84
2017-09-30T09:50:56.483Z,17.84
2017-09-30T09:51:56.483Z,17.76
2017-09-30T09:52:56.481Z,17.79
2017-09-30T09:53:56.481Z,17.79
2017-09-30T09:54:56.481Z,17.81
2017-09-30T09:55:56.479Z,17.83
2017-09-30T09:56:56.502Z,17.71
2017-09-30T09:57:56.482Z,17.73
2017-09-30T09:58:56.480Z,17.80
2017-09-30T09:59:56.481Z,17.79
2017-09-30T10:00:56.478Z,17.73
2017-09-30T10:01:56.478Z,17.71
2017-09-30T10:02:56.477Z,17.73
2017-09-30T10:03:56.479Z,17.79
2017-09-30T10:04:56.475Z,17.77
2017-09-30T10:05:56.470Z,17.79
2017-09-30T10:06:56.470Z,17.77
2017-09-30T10:07:56.468Z,17.81
2017-09-30T10:08:56.467Z,17.73
2017-09-30T10:09:56.467Z,17.80
2017-09-30T10:10:56.467Z,17.86
2017-09-30T10:11:56.469Z,17.96
2017-09-30T10:12:56.464Z,17.96
2017-09-30T10:13:56.468Z,17.95
2017-09-30T10:14:56.467Z,17.94
2017-09-30T10:15:56.465Z,17.79
2017-09-30T10:16:56.464Z,17.77
2017-09-30T10:17:56.459Z,17.71
2017-09-30T10:18:56.458Z,17.74
2017-09-30T10:19:56.457Z,17.77
2017-09-30T10:20:56.455Z,17.62
2017-09-30T10:21:56.457Z,17.57
2017-09-30T10:22:56.459Z,17.49
2017-09-30T10:23:56.458Z,17.57
2017-09-30T10:24:56.456Z,17.51
2017-09-30T10:25:56.455Z,17.49
2017-09-30T10:26:56.453Z,17.40
2017-09-30T10:27:56.452Z,17.39
2017-09-30T10:28:56.451Z,17.42
2017-09-30T10:29:56.447Z,17.40
2017-09-30T10:30:56.445Z,17.25
2017-09-30T10:31:56.445Z,17.30
2017-09-30T10:32:56.445Z,17.32
2017-09-30T10:33:56.444Z,17.32
2017-09-30T10:34:56.443Z,17.28
2017-09-30T10:35:56.450Z,17.25
2017-09-30T10:36:56.439Z,17.25
2017-09-30T10:37:56.443Z,17.22
2017-09-30T10:38:56.443Z,17.14
2017-09-30T10:39:56.441Z,17.10
2017-09-30T10:40:56.440Z,17.02
2017-09-30T10:41:56.439Z,16.98
2017-09-30T10:42:56.437Z,16.88
2017-09-30T10:43:56.437Z,16.91
2017-09-30T10:44:56.437Z,16.92
2017-09-30T10:45:56.430Z,16.98
2017-09-30T10:46:56.431Z,16.90
2017-09-30T10:47:56.430Z,16.91
2017-09-30T10:48:56.429Z,16.77
2017-09-30T10:49:56.427Z,16.84
2017-09-30T10:50:56.426Z,16.85
2017-09-30T10:51:56.425Z,16.85
2017-09-30T10:52:56.424Z,16.77
2017-09-30T10:53:56.427Z,16.77
2017-09-30T10:54:56.426Z,16.85
2017-09-30T10:55:56.425Z,16.72
2017-09-30T10:56:56.424Z,16.78
2017-09-30T10:57:56.423Z,16.70
2017-09-30T10:58:56.444Z,16.70
2017-09-30T10:59:56.421Z,16.66
2017-09-30T11:00:56.419Z,16.75
2017-09-30T11:01:56.414Z,16.57
2017-09-30T11:02:56.413Z,16.66
2017-09-30T11:03:56.414Z,16.63
2017-09-30T11:04:56.411Z,16.67
2017-09-30T11:05:56.409Z,16.75
2017-09-30T11:06:56.409Z,16.75
2017-09-30T11:07:56.409Z,16.67
2017-09-30T11:08:56.412Z,16.65
2017-09-30T11:09:56.410Z,16.69
2017-09-30T11:10:56.408Z,16.66
2017-09-30T11:11:56.407Z,16.66
2017-09-30T11:12:56.406Z,16.66
2017-09-30T11:13:56.407Z,16.75
2017-09-30T11:14:56.405Z,16.80
2017-09-30T11:15:56.406Z,16.80
2017-09-30T11:16:56.403Z,16.81
2017-09-30T11:17:56.397Z,16.90
2017-09-30T11:18:56.398Z,16.85
2017-09-30T11:19:56.396Z,16.92
2017-09-30T11:20:56.395Z,16.95
2017-09-30T11:21:56.397Z,17.10
2017-09-30T11:22:56.398Z,17.10
2017-09-30T11:23:56.398Z,17.25
2017-09-30T11:24:56.399Z,17.25
2017-09-30T11:25:56.391Z,17.42
2017-09-30T11:26:56.388Z,17.42
2017-09-30T11:27:56.389Z,17.53
2017-09-30T11:28:56.387Z,17.63
2017-09-30T11:29:56.386Z,17.65
2017-09-30T11:30:56.388Z,17.65
2017-09-30T11:31:56.387Z,17.66
2017-09-30T11:32:56.385Z,17.68
2017-09-30T11:33:56.389Z,17.74
2017-09-30T11:34:56.389Z,17.91
2017-09-30T11:35:56.389Z,17.99
2017-09-30T11:36:56.387Z,18.04
2017-09-30T11:37:56.388Z,18.04
2017-09-30T11:38:56.386Z,18.02
2017-09-30T11:39:56.385Z,18.13
2017-09-30T11:40:56.385Z,18.14
2017-09-30T11:41:56.381Z,18.16
2017-09-30T11:42:56.382Z,18.04
2017-09-30T11:43:56.380Z,18.04
2017-09-30T11:44:56.381Z,17.98
2017-09-30T11:45:56.380Z,17.92
2017-09-30T11:46:56.381Z,17.87
2017-09-30T11:47:56.381Z,17.89
2017-09-30T11:48:56.380Z,17.80
2017-09-30T11:49:56.383Z,17.83
2017-09-30T11:50:56.384Z,17.81
2017-09-30T11:51:56.384Z,17.68
2017-09-30T11:52:56.383Z,17.76
2017-09-30T11:53:56.383Z,17.79
2017-09-30T11:54:56.382Z,17.79
2017-09-30T11:55:56.383Z,17.76
2017-09-30T11:56:56.381Z,17.62
2017-09-30T11:57:56.376Z,17.53
2017-09-30T11:58:56.376Z,17.63
2017-09-30T11:59:56.377Z,17.60
2017-09-30T12:00:56.375Z,17.65
2017-09-30T12:01:56.376Z,17.60
2017-09-30T12:02:56.375Z,17.74
2017-09-30T12:03:56.373Z,17.63
2017-09-30T12:04:56.373Z,17.62
2017-09-30T12:05:56.377Z,17.65
2017-09-30T12:06:56.378Z,17.66
2017-09-30T12:07:56.377Z,17.68
2017-09-30T12:08:56.376Z,17.65
2017-09-30T12:09:56.374Z,17.60
2017-09-30T12:10:56.376Z,17.57
2017-09-30T12:11:56.377Z,17.63
2017-09-30T12:12:56.374Z,17.63
2017-09-30T12:13:56.369Z,17.63
2017-09-30T12:14:56.369Z,17.57
2017-09-30T12:15:56.371Z,17.65
2017-09-30T12:16:56.367Z,17.76
2017-09-30T12:17:56.368Z,17.62
2017-09-30T12:18:56.368Z,17.58
2017-09-30T12:19:56.369Z,17.60
2017-09-30T12:20:56.366Z,17.49
2017-09-30T12:21:56.372Z,17.63
2017-09-30T12:22:56.370Z,17.60
2017-09-30T12:23:56.372Z,17.58
2017-09-30T12:24:56.370Z,17.83
2017-09-30T12:25:56.366Z,17.80
2017-09-30T12:26:56.376Z,17.80
2017-09-30T12:27:56.365Z,17.79
2017-09-30T12:28:56.363Z,17.80
2017-09-30T12:29:56.368Z,17.70
2017-09-30T12:30:56.367Z,17.81
2017-09-30T12:31:56.367Z,17.70
2017-09-30T12:32:56.370Z,17.71
2017-09-30T12:33:56.371Z,17.57
2017-09-30T12:34:56.366Z,17.60
2017-09-30T12:35:56.370Z,17.63
2017-09-30T12:36:56.364Z,17.51
2017-09-30T12:37:56.361Z,17.38
2017-09-30T12:38:56.361Z,17.38
2017-09-30T12:39:56.362Z,17.38
2017-09-30T12:40:56.360Z,17.39
2017-09-30T12:41:56.359Z,17.39
2017-09-30T12:42:56.359Z,17.40
2017-09-30T12:43:56.359Z,17.33
2017-09-30T12:44:56.358Z,17.43
2017-09-30T12:45:56.361Z,17.39
2017-09-30T12:46:56.361Z,17.39
2017-09-30T12:47:56.361Z,17.39
2017-09-30T12:48:56.360Z,17.39
2017-09-30T12:49:56.360Z,17.36
2017-09-30T12:50:56.359Z,17.22
2017-09-30T12:51:56.360Z,17.20
2017-09-30T12:52:56.357Z,17.28